Montreal/Mirabel, Ontario

7:45 PM EDT on March 29, 2017 (GMT -0400)
Montreal International (Mirabel) | | Change Station

Elev 269 ft 45.68 °N, 74.03 °W | Updated 45 minutes ago

Mostly Cloudy
Mostly Cloudy
39 °F
Feels Like 33 °F
N
9
Wind Variable Wind from NNW

Today
High -- | Low -- °F
--% Chance of Precip.
Yesterday
High -- | Low -- °F
Precip. -- in
Pressure 30.26 in
Visibility 45.0 miles
Clouds Mostly Cloudy 5500 ft
Windchill 33 °F
Dew Point 21 °F
Humidity 49%
Rainfall 0.00 in
Snow Depth Not available.
6:41 AM 7:20 PM
Waxing Crescent, 5% visible
METAR CYMX 292300Z 34008KT 45SM BKN055 04/M06 A3025 RMK SC7 SLP247
Pressure 30.26 in
Visibility 45.0 miles
Clouds Mostly Cloudy 5500 ft
Windchill 33 °F
Dew Point 21 °F
Humidity 49%
Rainfall 0.00 in
Snow Depth Not available.
6:41 AM 7:20 PM
Waxing Crescent, 5% visible
METAR CYMX 292300Z 34008KT 45SM BKN055 04/M06 A3025 RMK SC7 SLP247

Get Severe Weather Alerts

Thanks for signing up!

Be on the lookout for a verification email in your inbox.

You'll start receiving the daily forecast at 8 AM.

×

10-Day Weather Forecast

Almanac

Astronomy

Mar. 29, 2017 Rise Set
Actual Time
Civil Twilight
Nautical Twilight
Astronomical Twilight
Moon
Length of Visible Light
Length of Day
Tomorrow will be .
, % of the Moon is Illuminated

Today's Extremes

Country Highs Country Lows

Community

WunderPhotos

Upload Photos

1,962,540 photos uploaded!

WunderBlog® & News

Nearby

Air Quality

  Air Quality AQ Index Pollutant
Not available.

Snow Depth

Station Depth Elevation

Earthquake Activity

City Distance Mag. Time & Date
Minimum magnitude displayed is 2.5.

Earthquake Activity

City Distance Mag. Time & Date
Minimum magnitude displayed is 2.5.

Coastal Water Temperatures

Place Temperature

Stations

Nearby Weather Stations

Station Location Temp. Windchill Dew Point Humidity Wind Precip. Elev Updated Type
                   

Watches & Warnings

There are currently no watches in effect.